createdAt,value
2023-09-01T00:04:39.328Z,10.40
2023-09-01T00:07:21.421Z,10.50
2023-09-01T00:10:08.306Z,10.70
2023-09-01T00:12:49.164Z,10.80
2023-09-01T00:18:32.452Z,11.10
2023-09-01T00:21:24.739Z,11.20
2023-09-01T00:24:10.824Z,11.30
2023-09-01T00:27:03.368Z,11.40
2023-09-01T00:29:37.304Z,11.50
2023-09-01T00:32:33.370Z,11.70
2023-09-01T00:35:36.162Z,11.70
2023-09-01T00:38:10.253Z,11.80
2023-09-01T00:41:11.820Z,11.90
2023-09-01T00:44:14.493Z,12.00
2023-09-01T00:50:16.397Z,12.10
2023-09-01T00:52:59.690Z,12.20
2023-09-01T00:58:36.004Z,12.30
2023-09-01T01:01:24.225Z,12.30
2023-09-01T01:07:32.795Z,12.50
2023-09-01T01:10:34.558Z,12.50
2023-09-01T01:13:32.726Z,12.60
2023-09-01T01:16:12.912Z,12.50
2023-09-01T01:18:52.800Z,12.70
2023-09-01T01:21:37.683Z,12.70
2023-09-01T01:24:25.527Z,12.80
2023-09-01T01:26:59.960Z,12.80
2023-09-01T01:29:56.300Z,12.70
2023-09-01T01:33:19.073Z,12.80
2023-09-01T01:36:16.738Z,12.90
2023-09-01T01:39:25.259Z,13.00
2023-09-01T01:42:15.116Z,13.00
2023-09-01T01:45:00.969Z,12.90
2023-09-01T01:47:40.947Z,13.20
2023-09-01T01:50:25.438Z,13.20
2023-09-01T01:53:27.847Z,13.20
2023-09-01T01:56:15.957Z,13.10
2023-09-01T01:59:07.227Z,13.00
2023-09-01T02:01:41.629Z,12.90
2023-09-01T02:04:19.788Z,12.90
2023-09-01T02:06:56.749Z,12.80
2023-09-01T02:09:33.125Z,12.80
2023-09-01T02:12:17.599Z,12.80
2023-09-01T02:14:53.934Z,12.80
2023-09-01T02:17:29.718Z,12.90
2023-09-01T02:20:18.272Z,12.80
2023-09-01T02:23:16.816Z,12.90
2023-09-01T02:25:53.135Z,12.80
2023-09-01T02:28:48.193Z,12.90
2023-09-01T02:31:30.664Z,12.80
2023-09-01T02:34:21.117Z,12.80
2023-09-01T02:36:57.742Z,12.80
2023-09-01T02:39:37.300Z,12.90
2023-09-01T02:42:25.029Z,13.00
2023-09-01T02:45:22.828Z,13.10
2023-09-01T02:48:35.582Z,13.10
2023-09-01T02:57:06.773Z,13.20
2023-09-01T02:59:52.490Z,13.30
2023-09-01T03:02:37.251Z,13.40
2023-09-01T03:05:20.524Z,13.30
2023-09-01T03:08:05.755Z,13.30
2023-09-01T03:10:41.193Z,13.40
2023-09-01T03:13:23.749Z,13.40
2023-09-01T03:15:58.871Z,13.50
2023-09-01T03:19:04.418Z,13.50
2023-09-01T03:21:37.102Z,13.60
2023-09-01T03:24:18.396Z,13.60
2023-09-01T03:27:11.472Z,13.60
2023-09-01T03:30:15.647Z,13.60
2023-09-01T03:32:55.283Z,13.60
2023-09-01T03:35:39.563Z,13.60
2023-09-01T03:38:46.006Z,13.70
2023-09-01T03:41:24.880Z,13.80
2023-09-01T03:44:13.790Z,13.80
2023-09-01T03:46:57.748Z,13.70
2023-09-01T03:52:50.525Z,13.80
2023-09-01T04:02:56.488Z,13.70
2023-09-01T04:05:39.778Z,13.70
2023-09-01T04:08:38.863Z,13.70
2023-09-01T04:11:22.683Z,13.70
2023-09-01T04:13:58.372Z,13.80
2023-09-01T04:16:54.762Z,14.00
2023-09-01T04:19:36.908Z,14.00
2023-09-01T04:22:12.558Z,14.10
2023-09-01T04:24:56.190Z,14.20
2023-09-01T04:27:34.597Z,14.10
2023-09-01T04:30:18.973Z,14.10
2023-09-01T04:33:22.838Z,14.10
2023-09-01T04:36:04.597Z,14.10
2023-09-01T04:38:47.215Z,14.10
2023-09-01T04:41:33.866Z,14.10
2023-09-01T04:44:06.712Z,14.20
2023-09-01T04:46:35.350Z,14.20
2023-09-01T04:49:04.793Z,14.30
2023-09-01T04:51:33.546Z,14.30
2023-09-01T04:54:02.159Z,14.40
2023-09-01T04:56:34.231Z,14.50
2023-09-01T04:59:02.910Z,14.50
2023-09-01T05:01:31.981Z,14.50
2023-09-01T05:04:01.053Z,14.60
2023-09-01T05:06:30.252Z,14.60
2023-09-01T05:08:58.906Z,14.70
2023-09-01T05:11:30.438Z,14.70
2023-09-01T05:14:00.533Z,14.90
2023-09-01T05:16:29.648Z,14.90
2023-09-01T05:18:58.648Z,15.00
2023-09-01T05:21:27.331Z,15.10
2023-09-01T05:23:56.785Z,15.10
2023-09-01T05:26:25.307Z,15.20
2023-09-01T05:28:54.045Z,15.20
2023-09-01T05:31:24.166Z,15.30
2023-09-01T05:33:56.179Z,15.30
2023-09-01T05:36:24.891Z,15.40
2023-09-01T05:38:53.767Z,15.40
2023-09-01T05:41:22.568Z,15.40
2023-09-01T05:43:51.336Z,15.50
2023-09-01T05:46:20.077Z,15.50
2023-09-01T05:48:50.440Z,15.60
2023-09-01T05:51:19.121Z,15.60
2023-09-01T05:53:47.712Z,15.70
2023-09-01T05:56:16.447Z,15.80
2023-09-01T05:58:45.099Z,16.00
2023-09-01T06:01:14.150Z,16.10
2023-09-01T06:03:42.868Z,16.30
2023-09-01T06:06:13.106Z,16.50
2023-09-01T06:08:41.860Z,16.60
2023-09-01T06:11:11.173Z,16.70
2023-09-01T06:13:39.790Z,16.70
2023-09-01T06:16:09.186Z,16.70
2023-09-01T06:18:38.220Z,16.70
2023-09-01T06:21:06.668Z,16.70
2023-09-01T06:23:42.159Z,16.60
2023-09-01T06:26:11.956Z,16.60
2023-09-01T06:28:41.998Z,16.60
2023-09-01T06:31:11.377Z,16.80
2023-09-01T06:33:41.467Z,16.90
2023-09-01T06:36:10.328Z,17.00
2023-09-01T06:38:40.543Z,17.10
2023-09-01T06:41:09.739Z,17.30
2023-09-01T06:43:39.006Z,17.40
2023-09-01T06:46:07.796Z,17.50
2023-09-01T06:48:36.756Z,17.50
2023-09-01T06:51:05.885Z,17.50
2023-09-01T06:53:36.470Z,17.50
2023-09-01T06:56:06.920Z,17.60
2023-09-01T06:58:35.603Z,17.80
2023-09-01T07:01:09.721Z,17.80
2023-09-01T07:03:38.714Z,17.80
2023-09-01T07:06:07.487Z,17.90
2023-09-01T07:08:36.140Z,18.00
2023-09-01T07:11:07.632Z,18.10
2023-09-01T07:13:36.255Z,18.10
2023-09-01T07:16:06.333Z,18.10
2023-09-01T07:18:34.968Z,18.30
2023-09-01T07:21:05.940Z,18.50
2023-09-01T07:23:34.630Z,18.70
2023-09-01T07:26:05.005Z,18.90
2023-09-01T07:28:35.079Z,19.10
2023-09-01T07:31:13.780Z,19.10
2023-09-01T07:33:43.996Z,19.10
2023-09-01T07:36:14.046Z,19.10
2023-09-01T07:38:43.408Z,19.10
2023-09-01T07:41:11.909Z,19.00
2023-09-01T07:43:42.520Z,19.00
2023-09-01T07:46:11.330Z,18.80
2023-09-01T07:48:40.130Z,18.80
2023-09-01T07:51:09.016Z,18.70
2023-09-01T07:53:37.808Z,18.60
2023-09-01T07:56:07.225Z,18.70
2023-09-01T07:58:35.761Z,18.70
2023-09-01T08:01:06.377Z,18.90
2023-09-01T08:03:35.380Z,19.00
2023-09-01T08:06:05.401Z,19.10
2023-09-01T08:08:34.257Z,19.20
2023-09-01T08:11:02.998Z,19.30
2023-09-01T08:13:31.943Z,19.40
2023-09-01T08:16:00.650Z,19.40
2023-09-01T08:18:30.560Z,19.50
2023-09-01T08:20:59.197Z,19.40
2023-09-01T08:23:30.531Z,19.40
2023-09-01T08:25:59.096Z,19.20
2023-09-01T08:28:27.616Z,19.20
2023-09-01T08:31:02.679Z,19.10
2023-09-01T08:33:33.771Z,19.00
2023-09-01T08:36:04.470Z,18.90
2023-09-01T08:38:33.157Z,18.80
2023-09-01T08:41:05.246Z,18.70
2023-09-01T08:43:37.358Z,18.60
2023-09-01T08:48:40.245Z,18.30
2023-09-01T08:51:10.140Z,18.10
2023-09-01T08:53:41.493Z,17.90
2023-09-01T08:56:10.683Z,17.80
2023-09-01T08:58:41.465Z,17.70
2023-09-01T09:01:10.150Z,17.50
2023-09-01T09:03:40.409Z,17.30
2023-09-01T09:06:09.467Z,17.20
2023-09-01T09:08:38.001Z,17.10
2023-09-01T09:11:14.058Z,17.00
2023-09-01T09:13:45.358Z,16.80
2023-09-01T09:16:18.532Z,16.70
2023-09-01T09:18:49.956Z,16.80
2023-09-01T09:21:30.098Z,16.70
2023-09-01T09:24:15.273Z,16.70
2023-09-01T09:26:48.575Z,16.80
2023-09-01T09:29:20.301Z,16.80
2023-09-01T09:31:48.688Z,16.70
2023-09-01T09:34:20.179Z,16.80
2023-09-01T09:36:50.805Z,16.80
2023-09-01T09:39:27.282Z,16.80
2023-09-01T09:41:56.926Z,16.80
2023-09-01T09:44:27.791Z,16.80
2023-09-01T09:46:56.497Z,16.70
2023-09-01T09:49:27.152Z,16.80
2023-09-01T09:51:56.214Z,16.80
2023-09-01T09:54:25.594Z,16.90
2023-09-01T09:56:55.204Z,16.80
2023-09-01T09:59:30.256Z,16.80
2023-09-01T10:02:01.312Z,16.80
2023-09-01T10:04:31.603Z,16.80
2023-09-01T10:07:00.401Z,16.80
2023-09-01T10:09:29.973Z,16.90
2023-09-01T10:11:59.037Z,16.90
2023-09-01T10:14:30.708Z,17.00
2023-09-01T10:17:01.756Z,17.00
2023-09-01T10:19:32.502Z,17.00
2023-09-01T10:22:01.229Z,17.10
2023-09-01T10:24:29.928Z,17.10
2023-09-01T10:27:17.151Z,17.20
2023-09-01T10:29:45.915Z,17.20
2023-09-01T10:32:18.787Z,17.10
2023-09-01T10:34:55.846Z,17.10
2023-09-01T10:37:29.128Z,17.10
2023-09-01T10:39:57.826Z,17.10
2023-09-01T10:42:42.487Z,17.10
2023-09-01T10:45:13.032Z,17.20
2023-09-01T10:47:48.217Z,17.30
2023-09-01T10:50:18.594Z,17.30
2023-09-01T10:52:48.107Z,17.40
2023-09-01T10:55:16.882Z,17.40
2023-09-01T10:57:48.264Z,17.50
2023-09-01T11:00:34.151Z,17.60
2023-09-01T11:03:29.378Z,17.70
2023-09-01T11:06:00.236Z,17.80
2023-09-01T11:08:28.941Z,17.90
2023-09-01T11:11:01.980Z,17.90
2023-09-01T11:13:30.589Z,18.00
2023-09-01T11:15:59.217Z,18.00
2023-09-01T11:18:27.950Z,18.10
2023-09-01T11:20:58.751Z,18.20
2023-09-01T11:23:29.252Z,18.20
2023-09-01T11:25:58.516Z,18.30
2023-09-01T11:28:30.013Z,18.30
2023-09-01T11:31:05.012Z,18.30
2023-09-01T11:33:37.726Z,18.30
2023-09-01T11:36:09.235Z,18.40
2023-09-01T11:38:37.801Z,18.50
2023-09-01T11:41:09.613Z,18.60
2023-09-01T11:43:38.507Z,18.60
2023-09-01T11:46:07.216Z,18.60
2023-09-01T11:48:36.161Z,18.70
2023-09-01T11:51:05.963Z,18.80
2023-09-01T11:53:36.924Z,19.10
2023-09-01T11:56:20.679Z,19.10
2023-09-01T11:58:50.603Z,19.20
2023-09-01T12:01:20.511Z,19.20
2023-09-01T12:03:50.253Z,19.20
2023-09-01T12:06:20.250Z,19.20
2023-09-01T12:08:50.987Z,19.20
2023-09-01T12:11:23.016Z,19.20
2023-09-01T12:13:52.204Z,19.20
2023-09-01T12:16:22.548Z,19.30
2023-09-01T12:18:52.014Z,19.30
2023-09-01T12:21:20.758Z,19.40
2023-09-01T12:23:50.957Z,19.40
2023-09-01T12:26:19.711Z,19.70
2023-09-01T12:28:48.373Z,19.90
2023-09-01T12:31:17.348Z,20.10
2023-09-01T12:33:46.211Z,20.30
2023-09-01T12:36:15.497Z,20.50
2023-09-01T12:38:45.257Z,20.50
2023-09-01T12:41:15.818Z,20.40
2023-09-01T12:43:45.476Z,20.40
2023-09-01T12:46:14.152Z,20.40
2023-09-01T12:48:43.088Z,20.40
2023-09-01T12:51:11.681Z,20.40
2023-09-01T12:53:44.505Z,20.30
2023-09-01T12:56:14.721Z,20.20
2023-09-01T12:58:43.419Z,20.10
2023-09-01T13:01:12.132Z,20.00
2023-09-01T13:03:40.886Z,20.10
2023-09-01T13:06:13.234Z,20.20
2023-09-01T13:08:43.032Z,20.30
2023-09-01T13:11:12.627Z,20.50
2023-09-01T13:13:42.996Z,20.70
2023-09-01T13:16:13.191Z,20.90
2023-09-01T13:18:42.003Z,20.80
2023-09-01T13:21:11.149Z,20.70
2023-09-01T13:23:39.747Z,20.80
2023-09-01T13:26:09.698Z,21.00
2023-09-01T13:28:38.883Z,21.10
2023-09-01T13:31:09.238Z,21.30
2023-09-01T13:33:42.505Z,21.60
2023-09-01T13:36:12.355Z,21.90
2023-09-01T13:38:41.075Z,22.00
2023-09-01T13:41:12.095Z,22.10
2023-09-01T13:43:40.817Z,22.30
2023-09-01T13:46:29.393Z,22.40
2023-09-01T13:49:08.757Z,22.90
2023-09-01T13:51:37.726Z,22.90
2023-09-01T13:54:12.348Z,22.80
2023-09-01T13:56:41.937Z,22.80
2023-09-01T13:59:13.965Z,22.90
2023-09-01T14:01:47.961Z,22.60
2023-09-01T14:04:28.976Z,22.50
2023-09-01T14:07:05.187Z,22.30
2023-09-01T14:09:34.050Z,22.00
2023-09-01T14:12:07.124Z,21.50
2023-09-01T14:14:36.081Z,21.60
2023-09-01T14:17:08.658Z,21.50
2023-09-01T14:19:37.553Z,21.40
2023-09-01T14:22:06.881Z,21.60
